sensor_id;sensor_type;location;lat;lon;timestamp;temperature;humidity
49132;DHT22;35149;51.196;6.204;2023-02-28T00:00:20;2.50;56.60
49132;DHT22;35149;51.196;6.204;2023-02-28T00:02:51;2.50;56.60
49132;DHT22;35149;51.196;6.204;2023-02-28T00:05:21;2.50;56.80
49132;DHT22;35149;51.196;6.204;2023-02-28T00:07:49;2.40;56.80
49132;DHT22;35149;51.196;6.204;2023-02-28T00:10:22;2.40;56.80
49132;DHT22;35149;51.196;6.204;2023-02-28T00:13:03;2.40;56.90
49132;DHT22;35149;51.196;6.204;2023-02-28T00:15:37;2.40;56.80
49132;DHT22;35149;51.196;6.204;2023-02-28T00:18:12;2.40;56.80
49132;DHT22;35149;51.196;6.204;2023-02-28T00:20:42;2.40;56.80
49132;DHT22;35149;51.196;6.204;2023-02-28T00:23:08;2.30;56.80
49132;DHT22;35149;51.196;6.204;2023-02-28T00:25:35;2.30;56.90
49132;DHT22;35149;51.196;6.204;2023-02-28T00:28:04;2.30;57.00
49132;DHT22;35149;51.196;6.204;2023-02-28T00:30:33;2.30;57.00
49132;DHT22;35149;51.196;6.204;2023-02-28T00:33:03;2.30;57.00
49132;DHT22;35149;51.196;6.204;2023-02-28T00:35:32;2.30;57.10
49132;DHT22;35149;51.196;6.204;2023-02-28T00:38:01;2.20;57.10
49132;DHT22;35149;51.196;6.204;2023-02-28T00:40:34;2.20;57.00
49132;DHT22;35149;51.196;6.204;2023-02-28T00:43:03;2.20;57.10
49132;DHT22;35149;51.196;6.204;2023-02-28T00:45:30;2.20;57.20
49132;DHT22;35149;51.196;6.204;2023-02-28T00:47:57;2.20;57.20
49132;DHT22;35149;51.196;6.204;2023-02-28T00:50:26;2.20;57.20
49132;DHT22;35149;51.196;6.204;2023-02-28T00:52:59;2.10;57.30
49132;DHT22;35149;51.196;6.204;2023-02-28T00:55:27;2.20;57.20
49132;DHT22;35149;51.196;6.204;2023-02-28T00:57:55;2.10;57.30
49132;DHT22;35149;51.196;6.204;2023-02-28T01:00:22;2.10;57.30
49132;DHT22;35149;51.196;6.204;2023-02-28T01:02:49;2.10;57.30
49132;DHT22;35149;51.196;6.204;2023-02-28T01:05:16;2.10;57.50
49132;DHT22;35149;51.196;6.204;2023-02-28T01:07:46;2.20;57.50
49132;DHT22;35149;51.196;6.204;2023-02-28T01:10:16;2.10;57.60
49132;DHT22;35149;51.196;6.204;2023-02-28T01:12:45;2.10;57.60
49132;DHT22;35149;51.196;6.204;2023-02-28T01:15:14;2.00;57.50
49132;DHT22;35149;51.196;6.204;2023-02-28T01:17:46;2.00;57.50
49132;DHT22;35149;51.196;6.204;2023-02-28T01:20:15;2.00;57.40
49132;DHT22;35149;51.196;6.204;2023-02-28T01:22:42;2.00;57.50
49132;DHT22;35149;51.196;6.204;2023-02-28T01:25:08;2.00;57.50
49132;DHT22;35149;51.196;6.204;2023-02-28T01:27:35;2.00;57.50
49132;DHT22;35149;51.196;6.204;2023-02-28T01:30:07;1.90;57.50
49132;DHT22;35149;51.196;6.204;2023-02-28T01:32:35;1.90;57.60
49132;DHT22;35149;51.196;6.204;2023-02-28T01:35:06;1.90;57.60
49132;DHT22;35149;51.196;6.204;2023-02-28T01:37:37;1.90;57.60
49132;DHT22;35149;51.196;6.204;2023-02-28T01:40:07;1.90;57.60
49132;DHT22;35149;51.196;6.204;2023-02-28T01:42:35;1.90;57.60
49132;DHT22;35149;51.196;6.204;2023-02-28T01:45:25;1.90;57.70
49132;DHT22;35149;51.196;6.204;2023-02-28T01:48:01;1.90;58.30
49132;DHT22;35149;51.196;6.204;2023-02-28T01:50:35;1.90;57.80
49132;DHT22;35149;51.196;6.204;2023-02-28T01:53:07;1.80;57.80
49132;DHT22;35149;51.196;6.204;2023-02-28T01:55:40;1.80;57.90
49132;DHT22;35149;51.196;6.204;2023-02-28T01:58:09;1.80;58.00
49132;DHT22;35149;51.196;6.204;2023-02-28T02:00:38;1.80;58.00
49132;DHT22;35149;51.196;6.204;2023-02-28T02:03:08;1.80;58.10
49132;DHT22;35149;51.196;6.204;2023-02-28T02:05:39;1.80;58.10
49132;DHT22;35149;51.196;6.204;2023-02-28T02:08:11;1.80;58.10
49132;DHT22;35149;51.196;6.204;2023-02-28T02:11:07;1.80;58.20
49132;DHT22;35149;51.196;6.204;2023-02-28T02:16:44;1.80;58.70
49132;DHT22;35149;51.196;6.204;2023-02-28T02:30:58;1.70;58.20
49132;DHT22;35149;51.196;6.204;2023-02-28T02:36:24;1.70;58.30
49132;DHT22;35149;51.196;6.204;2023-02-28T02:41:34;1.60;58.00
49132;DHT22;35149;51.196;6.204;2023-02-28T02:44:07;1.60;58.10
49132;DHT22;35149;51.196;6.204;2023-02-28T02:46:39;1.60;58.00
49132;DHT22;35149;51.196;6.204;2023-02-28T02:49:13;1.60;58.00
49132;DHT22;35149;51.196;6.204;2023-02-28T02:51:42;1.60;58.10
49132;DHT22;35149;51.196;6.204;2023-02-28T02:54:21;1.60;58.00
49132;DHT22;35149;51.196;6.204;2023-02-28T02:56:51;1.60;58.40
49132;DHT22;35149;51.196;6.204;2023-02-28T02:59:21;1.50;58.10
49132;DHT22;35149;51.196;6.204;2023-02-28T03:01:53;1.50;58.30
49132;DHT22;35149;51.196;6.204;2023-02-28T03:04:23;1.50;58.30
49132;DHT22;35149;51.196;6.204;2023-02-28T03:06:51;1.50;58.30
49132;DHT22;35149;51.196;6.204;2023-02-28T03:09:22;1.50;58.20
49132;DHT22;35149;51.196;6.204;2023-02-28T03:11:52;1.50;58.20
49132;DHT22;35149;51.196;6.204;2023-02-28T03:19:52;1.40;58.30
49132;DHT22;35149;51.196;6.204;2023-02-28T03:22:40;1.40;58.20
49132;DHT22;35149;51.196;6.204;2023-02-28T03:30:57;1.40;58.50
49132;DHT22;35149;51.196;6.204;2023-02-28T03:33:38;1.30;58.10
49132;DHT22;35149;51.196;6.204;2023-02-28T03:36:18;1.30;58.50
49132;DHT22;35149;51.196;6.204;2023-02-28T03:38:58;1.30;58.30
49132;DHT22;35149;51.196;6.204;2023-02-28T03:41:35;1.20;58.10
49132;DHT22;35149;51.196;6.204;2023-02-28T03:44:16;1.20;58.10
49132;DHT22;35149;51.196;6.204;2023-02-28T03:46:51;1.20;58.30
49132;DHT22;35149;51.196;6.204;2023-02-28T03:49:24;1.20;58.30
49132;DHT22;35149;51.196;6.204;2023-02-28T03:51:56;1.20;58.30
49132;DHT22;35149;51.196;6.204;2023-02-28T03:54:31;1.10;58.30
49132;DHT22;35149;51.196;6.204;2023-02-28T03:57:06;1.10;58.50
49132;DHT22;35149;51.196;6.204;2023-02-28T03:59:43;1.10;58.50
49132;DHT22;35149;51.196;6.204;2023-02-28T04:02:10;1.10;58.60
49132;DHT22;35149;51.196;6.204;2023-02-28T04:04:37;1.20;59.40
49132;DHT22;35149;51.196;6.204;2023-02-28T04:07:08;1.10;58.10
49132;DHT22;35149;51.196;6.204;2023-02-28T04:09:39;1.10;58.30
49132;DHT22;35149;51.196;6.204;2023-02-28T04:12:06;1.10;58.30
49132;DHT22;35149;51.196;6.204;2023-02-28T04:14:33;1.10;58.50
49132;DHT22;35149;51.196;6.204;2023-02-28T04:16:59;1.00;58.60
49132;DHT22;35149;51.196;6.204;2023-02-28T04:19:31;1.00;58.60
49132;DHT22;35149;51.196;6.204;2023-02-28T04:22:00;1.00;58.70
49132;DHT22;35149;51.196;6.204;2023-02-28T04:24:29;1.00;58.60
49132;DHT22;35149;51.196;6.204;2023-02-28T04:26:58;1.00;58.60
49132;DHT22;35149;51.196;6.204;2023-02-28T04:29:27;1.00;58.60
49132;DHT22;35149;51.196;6.204;2023-02-28T04:31:57;1.00;58.60
49132;DHT22;35149;51.196;6.204;2023-02-28T04:34:30;1.00;58.60
49132;DHT22;35149;51.196;6.204;2023-02-28T04:37:00;1.00;58.80
49132;DHT22;35149;51.196;6.204;2023-02-28T04:39:39;0.90;58.80
49132;DHT22;35149;51.196;6.204;2023-02-28T04:42:06;0.90;58.90
49132;DHT22;35149;51.196;6.204;2023-02-28T04:44:39;0.90;59.10
49132;DHT22;35149;51.196;6.204;2023-02-28T04:47:05;0.90;59.20
49132;DHT22;35149;51.196;6.204;2023-02-28T04:49:40;1.00;59.50
49132;DHT22;35149;51.196;6.204;2023-02-28T04:52:10;1.00;59.90
49132;DHT22;35149;51.196;6.204;2023-02-28T04:54:37;1.00;59.90
49132;DHT22;35149;51.196;6.204;2023-02-28T04:57:08;1.00;60.00
49132;DHT22;35149;51.196;6.204;2023-02-28T04:59:34;1.00;60.20
49132;DHT22;35149;51.196;6.204;2023-02-28T05:02:01;1.10;60.40
49132;DHT22;35149;51.196;6.204;2023-02-28T05:04:35;1.20;60.40
49132;DHT22;35149;51.196;6.204;2023-02-28T05:07:02;1.10;60.30
49132;DHT22;35149;51.196;6.204;2023-02-28T05:09:31;1.20;60.20
49132;DHT22;35149;51.196;6.204;2023-02-28T05:11:59;1.20;60.00
49132;DHT22;35149;51.196;6.204;2023-02-28T05:14:28;1.30;60.00
49132;DHT22;35149;51.196;6.204;2023-02-28T05:16:56;1.20;59.70
49132;DHT22;35149;51.196;6.204;2023-02-28T05:19:25;1.20;59.60
49132;DHT22;35149;51.196;6.204;2023-02-28T05:21:55;1.20;59.70
49132;DHT22;35149;51.196;6.204;2023-02-28T05:24:22;1.20;59.50
49132;DHT22;35149;51.196;6.204;2023-02-28T05:26:54;1.20;59.40
49132;DHT22;35149;51.196;6.204;2023-02-28T05:29:21;1.10;59.30
49132;DHT22;35149;51.196;6.204;2023-02-28T05:31:48;1.10;59.20
49132;DHT22;35149;51.196;6.204;2023-02-28T05:34:15;1.10;59.20
49132;DHT22;35149;51.196;6.204;2023-02-28T05:36:42;1.10;59.20
49132;DHT22;35149;51.196;6.204;2023-02-28T05:39:09;1.10;59.20
49132;DHT22;35149;51.196;6.204;2023-02-28T05:41:43;1.10;59.20
49132;DHT22;35149;51.196;6.204;2023-02-28T05:44:10;1.00;59.10
49132;DHT22;35149;51.196;6.204;2023-02-28T05:46:37;1.20;59.20
49132;DHT22;35149;51.196;6.204;2023-02-28T05:49:04;1.00;59.10
49132;DHT22;35149;51.196;6.204;2023-02-28T05:51:31;1.00;59.10
49132;DHT22;35149;51.196;6.204;2023-02-28T05:54:00;1.00;59.10
49132;DHT22;35149;51.196;6.204;2023-02-28T05:56:28;0.90;59.10
49132;DHT22;35149;51.196;6.204;2023-02-28T05:58:55;0.90;59.00
49132;DHT22;35149;51.196;6.204;2023-02-28T06:01:40;0.90;59.00
49132;DHT22;35149;51.196;6.204;2023-02-28T06:04:09;0.90;59.10
49132;DHT22;35149;51.196;6.204;2023-02-28T06:06:54;0.80;58.90
49132;DHT22;35149;51.196;6.204;2023-02-28T06:09:23;0.80;58.90
49132;DHT22;35149;51.196;6.204;2023-02-28T06:11:51;0.80;59.00
49132;DHT22;35149;51.196;6.204;2023-02-28T06:14:19;0.70;58.90
49132;DHT22;35149;51.196;6.204;2023-02-28T06:16:46;0.80;59.10
49132;DHT22;35149;51.196;6.204;2023-02-28T06:19:15;0.70;59.00
49132;DHT22;35149;51.196;6.204;2023-02-28T06:21:44;0.80;59.20
49132;DHT22;35149;51.196;6.204;2023-02-28T06:24:11;0.70;59.10
49132;DHT22;35149;51.196;6.204;2023-02-28T06:26:38;0.70;59.20
49132;DHT22;35149;51.196;6.204;2023-02-28T06:29:05;0.70;59.30
49132;DHT22;35149;51.196;6.204;2023-02-28T06:31:31;0.70;59.30
49132;DHT22;35149;51.196;6.204;2023-02-28T06:34:01;0.70;59.30
49132;DHT22;35149;51.196;6.204;2023-02-28T06:36:28;0.70;59.30
49132;DHT22;35149;51.196;6.204;2023-02-28T06:38:54;0.80;59.40
49132;DHT22;35149;51.196;6.204;2023-02-28T06:41:25;0.70;59.30
49132;DHT22;35149;51.196;6.204;2023-02-28T06:43:52;0.70;59.30
49132;DHT22;35149;51.196;6.204;2023-02-28T06:46:19;0.70;59.30
49132;DHT22;35149;51.196;6.204;2023-02-28T06:48:47;0.70;59.30
49132;DHT22;35149;51.196;6.204;2023-02-28T06:51:17;0.70;59.30
49132;DHT22;35149;51.196;6.204;2023-02-28T06:53:46;0.70;59.40
49132;DHT22;35149;51.196;6.204;2023-02-28T06:56:14;0.70;60.00
49132;DHT22;35149;51.196;6.204;2023-02-28T06:58:50;0.70;59.00
49132;DHT22;35149;51.196;6.204;2023-02-28T07:01:17;0.70;59.20
49132;DHT22;35149;51.196;6.204;2023-02-28T07:03:44;0.70;59.30
49132;DHT22;35149;51.196;6.204;2023-02-28T07:06:11;0.70;59.60
49132;DHT22;35149;51.196;6.204;2023-02-28T07:08:40;0.70;59.70
49132;DHT22;35149;51.196;6.204;2023-02-28T07:11:08;0.70;60.00
49132;DHT22;35149;51.196;6.204;2023-02-28T07:13:35;0.80;60.20
49132;DHT22;35149;51.196;6.204;2023-02-28T07:16:05;0.90;60.40
49132;DHT22;35149;51.196;6.204;2023-02-28T07:18:32;0.90;60.70
49132;DHT22;35149;51.196;6.204;2023-02-28T07:21:01;0.90;60.70
49132;DHT22;35149;51.196;6.204;2023-02-28T07:23:27;1.00;60.70
49132;DHT22;35149;51.196;6.204;2023-02-28T07:25:54;1.00;60.80
49132;DHT22;35149;51.196;6.204;2023-02-28T07:28:21;1.10;60.80
49132;DHT22;35149;51.196;6.204;2023-02-28T07:30:49;1.10;60.80
49132;DHT22;35149;51.196;6.204;2023-02-28T07:33:19;1.20;60.80
49132;DHT22;35149;51.196;6.204;2023-02-28T07:35:45;1.30;60.80
49132;DHT22;35149;51.196;6.204;2023-02-28T07:38:12;1.40;60.70
49132;DHT22;35149;51.196;6.204;2023-02-28T07:40:40;1.40;60.70
49132;DHT22;35149;51.196;6.204;2023-02-28T07:43:06;1.50;60.70
49132;DHT22;35149;51.196;6.204;2023-02-28T07:45:33;1.50;60.70
49132;DHT22;35149;51.196;6.204;2023-02-28T07:48:02;1.70;60.60
49132;DHT22;35149;51.196;6.204;2023-02-28T07:50:30;1.60;60.40
49132;DHT22;35149;51.196;6.204;2023-02-28T07:52:58;1.80;60.50
49132;DHT22;35149;51.196;6.204;2023-02-28T07:55:25;1.80;60.40
49132;DHT22;35149;51.196;6.204;2023-02-28T07:57:52;1.80;60.30
49132;DHT22;35149;51.196;6.204;2023-02-28T08:00:21;1.90;60.30
49132;DHT22;35149;51.196;6.204;2023-02-28T08:02:48;1.90;60.00
49132;DHT22;35149;51.196;6.204;2023-02-28T08:05:17;2.00;60.00
49132;DHT22;35149;51.196;6.204;2023-02-28T08:07:49;2.00;59.90
49132;DHT22;35149;51.196;6.204;2023-02-28T08:10:16;2.10;59.80
49132;DHT22;35149;51.196;6.204;2023-02-28T08:12:45;2.10;59.60
49132;DHT22;35149;51.196;6.204;2023-02-28T08:15:12;2.20;59.50
49132;DHT22;35149;51.196;6.204;2023-02-28T08:17:39;2.30;59.40
49132;DHT22;35149;51.196;6.204;2023-02-28T08:20:06;2.30;59.20
49132;DHT22;35149;51.196;6.204;2023-02-28T08:22:33;2.30;59.10
49132;DHT22;35149;51.196;6.204;2023-02-28T08:25:00;2.40;58.90
49132;DHT22;35149;51.196;6.204;2023-02-28T08:27:26;2.50;58.70
49132;DHT22;35149;51.196;6.204;2023-02-28T08:29:53;2.50;58.50
49132;DHT22;35149;51.196;6.204;2023-02-28T08:32:19;2.60;58.30
49132;DHT22;35149;51.196;6.204;2023-02-28T08:34:55;2.60;58.00
49132;DHT22;35149;51.196;6.204;2023-02-28T08:37:22;2.70;57.90
49132;DHT22;35149;51.196;6.204;2023-02-28T08:39:49;2.80;57.70
49132;DHT22;35149;51.196;6.204;2023-02-28T08:42:15;2.80;57.50
49132;DHT22;35149;51.196;6.204;2023-02-28T08:44:42;2.90;57.40
49132;DHT22;35149;51.196;6.204;2023-02-28T08:47:11;3.00;57.30
49132;DHT22;35149;51.196;6.204;2023-02-28T08:49:38;3.00;57.10
49132;DHT22;35149;51.196;6.204;2023-02-28T08:52:04;3.10;57.00
49132;DHT22;35149;51.196;6.204;2023-02-28T08:54:31;3.10;56.70
49132;DHT22;35149;51.196;6.204;2023-02-28T08:56:59;3.20;56.60
49132;DHT22;35149;51.196;6.204;2023-02-28T08:59:29;3.30;56.60
49132;DHT22;35149;51.196;6.204;2023-02-28T09:01:58;3.30;56.20
49132;DHT22;35149;51.196;6.204;2023-02-28T09:04:24;3.40;55.80
49132;DHT22;35149;51.196;6.204;2023-02-28T09:06:51;3.40;55.50
49132;DHT22;35149;51.196;6.204;2023-02-28T09:09:18;3.50;55.40
49132;DHT22;35149;51.196;6.204;2023-02-28T09:11:44;3.60;55.20
49132;DHT22;35149;51.196;6.204;2023-02-28T09:14:11;3.60;55.00
49132;DHT22;35149;51.196;6.204;2023-02-28T09:16:37;3.60;54.80
49132;DHT22;35149;51.196;6.204;2023-02-28T09:19:04;3.70;54.40
49132;DHT22;35149;51.196;6.204;2023-02-28T09:21:31;3.70;54.10
49132;DHT22;35149;51.196;6.204;2023-02-28T09:23:58;3.80;53.90
49132;DHT22;35149;51.196;6.204;2023-02-28T09:26:26;3.90;53.90
49132;DHT22;35149;51.196;6.204;2023-02-28T09:29:08;3.90;53.60
49132;DHT22;35149;51.196;6.204;2023-02-28T09:31:35;4.00;53.30
49132;DHT22;35149;51.196;6.204;2023-02-28T09:34:03;4.10;53.00
49132;DHT22;35149;51.196;6.204;2023-02-28T09:36:30;4.10;52.60
49132;DHT22;35149;51.196;6.204;2023-02-28T09:39:10;4.20;52.40
49132;DHT22;35149;51.196;6.204;2023-02-28T09:41:43;4.20;52.00
49132;DHT22;35149;51.196;6.204;2023-02-28T09:44:41;4.30;51.70
49132;DHT22;35149;51.196;6.204;2023-02-28T09:49:47;4.40;51.40
49132;DHT22;35149;51.196;6.204;2023-02-28T09:52:21;4.50;51.30
49132;DHT22;35149;51.196;6.204;2023-02-28T09:54:50;4.50;50.70
49132;DHT22;35149;51.196;6.204;2023-02-28T09:57:37;4.60;50.80
49132;DHT22;35149;51.196;6.204;2023-02-28T10:00:20;4.60;50.00
49132;DHT22;35149;51.196;6.204;2023-02-28T10:08:37;4.80;49.20
49132;DHT22;35149;51.196;6.204;2023-02-28T10:11:14;4.90;49.10
49132;DHT22;35149;51.196;6.204;2023-02-28T10:13:57;4.90;49.10
49132;DHT22;35149;51.196;6.204;2023-02-28T10:19:16;5.10;48.50
49132;DHT22;35149;51.196;6.204;2023-02-28T10:22:10;5.10;48.90
49132;DHT22;35149;51.196;6.204;2023-02-28T10:24:52;5.20;48.30
49132;DHT22;35149;51.196;6.204;2023-02-28T10:27:25;5.30;48.40
49132;DHT22;35149;51.196;6.204;2023-02-28T10:29:56;5.40;48.60
49132;DHT22;35149;51.196;6.204;2023-02-28T10:32:31;5.50;48.80
49132;DHT22;35149;51.196;6.204;2023-02-28T10:35:24;5.60;48.60
49132;DHT22;35149;51.196;6.204;2023-02-28T10:37:59;5.70;47.60
49132;DHT22;35149;51.196;6.204;2023-02-28T10:40:35;5.80;48.10
49132;DHT22;35149;51.196;6.204;2023-02-28T10:46:03;6.00;48.10
49132;DHT22;35149;51.196;6.204;2023-02-28T10:50:59;6.20;47.70
49132;DHT22;35149;51.196;6.204;2023-02-28T11:01:39;6.50;47.10
49132;DHT22;35149;51.196;6.204;2023-02-28T11:06:58;6.70;46.00
49132;DHT22;35149;51.196;6.204;2023-02-28T11:09:35;6.80;46.00
49132;DHT22;35149;51.196;6.204;2023-02-28T11:12:05;6.90;46.00
49132;DHT22;35149;51.196;6.204;2023-02-28T11:14:47;6.90;46.50
49132;DHT22;35149;51.196;6.204;2023-02-28T11:17:23;6.90;45.60
49132;DHT22;35149;51.196;6.204;2023-02-28T11:19:53;6.90;45.30
49132;DHT22;35149;51.196;6.204;2023-02-28T11:22:27;6.90;45.70
49132;DHT22;35149;51.196;6.204;2023-02-28T11:25:02;6.90;45.80
49132;DHT22;35149;51.196;6.204;2023-02-28T11:30:00;6.90;45.10
49132;DHT22;35149;51.196;6.204;2023-02-28T11:32:29;6.90;45.20
49132;DHT22;35149;51.196;6.204;2023-02-28T11:37:38;6.80;45.00
49132;DHT22;35149;51.196;6.204;2023-02-28T11:40:20;6.80;45.10
49132;DHT22;35149;51.196;6.204;2023-02-28T11:43:06;6.80;44.90
49132;DHT22;35149;51.196;6.204;2023-02-28T11:45:55;6.80;45.10
49132;DHT22;35149;51.196;6.204;2023-02-28T11:51:48;6.70;45.40
49132;DHT22;35149;51.196;6.204;2023-02-28T11:59:56;6.70;45.70
49132;DHT22;35149;51.196;6.204;2023-02-28T12:14:06;6.70;45.00
49132;DHT22;35149;51.196;6.204;2023-02-28T12:17:04;6.70;44.90
49132;DHT22;35149;51.196;6.204;2023-02-28T12:25:42;6.80;44.90
49132;DHT22;35149;51.196;6.204;2023-02-28T12:28:17;6.80;45.10
49132;DHT22;35149;51.196;6.204;2023-02-28T12:30:55;6.80;45.00
49132;DHT22;35149;51.196;6.204;2023-02-28T12:33:26;6.90;44.40
49132;DHT22;35149;51.196;6.204;2023-02-28T12:35:58;6.90;44.90
49132;DHT22;35149;51.196;6.204;2023-02-28T12:39:01;6.90;44.90
49132;DHT22;35149;51.196;6.204;2023-02-28T12:41:41;6.90;44.20
49132;DHT22;35149;51.196;6.204;2023-02-28T12:44:18;7.00;44.40
49132;DHT22;35149;51.196;6.204;2023-02-28T12:46:49;7.00;44.40
49132;DHT22;35149;51.196;6.204;2023-02-28T12:49:39;7.00;44.50
49132;DHT22;35149;51.196;6.204;2023-02-28T12:52:08;7.10;44.00
49132;DHT22;35149;51.196;6.204;2023-02-28T12:55:00;7.10;44.60
49132;DHT22;35149;51.196;6.204;2023-02-28T12:57:48;7.10;44.00
49132;DHT22;35149;51.196;6.204;2023-02-28T13:00:19;7.20;44.30
49132;DHT22;35149;51.196;6.204;2023-02-28T13:03:17;7.20;44.60
49132;DHT22;35149;51.196;6.204;2023-02-28T13:08:59;7.30;45.10
49132;DHT22;35149;51.196;6.204;2023-02-28T13:11:40;7.30;44.00
49132;DHT22;35149;51.196;6.204;2023-02-28T13:19:38;7.50;43.50
49132;DHT22;35149;51.196;6.204;2023-02-28T13:22:09;7.50;43.80
49132;DHT22;35149;51.196;6.204;2023-02-28T13:24:53;7.50;43.80
49132;DHT22;35149;51.196;6.204;2023-02-28T13:27:31;7.60;43.20
49132;DHT22;35149;51.196;6.204;2023-02-28T13:29:59;7.60;43.80
49132;DHT22;35149;51.196;6.204;2023-02-28T13:42:51;7.80;43.70
49132;DHT22;35149;51.196;6.204;2023-02-28T13:45:22;7.90;44.20
49132;DHT22;35149;51.196;6.204;2023-02-28T13:56:20;8.10;42.50
49132;DHT22;35149;51.196;6.204;2023-02-28T14:07:48;9.80;46.20
49132;DHT22;35149;51.196;6.204;2023-02-28T14:10:46;11.10;45.90
49132;DHT22;35149;51.196;6.204;2023-02-28T14:16:06;13.90;42.90
49132;DHT22;35149;51.196;6.204;2023-02-28T14:18:37;15.20;42.90
49132;DHT22;35149;51.196;6.204;2023-02-28T14:26:53;18.70;37.60
49132;DHT22;35149;51.196;6.204;2023-02-28T14:32:51;20.80;34.10
49132;DHT22;35149;51.196;6.204;2023-02-28T14:35:50;21.70;33.40
49132;DHT22;35149;51.196;6.204;2023-02-28T14:38:29;22.40;32.70
49132;DHT22;35149;51.196;6.204;2023-02-28T14:41:03;22.90;30.90
49132;DHT22;35149;51.196;6.204;2023-02-28T14:43:34;23.30;30.20
49132;DHT22;35149;51.196;6.204;2023-02-28T14:46:06;23.60;30.50
49132;DHT22;35149;51.196;6.204;2023-02-28T14:48:39;23.60;28.90
49132;DHT22;35149;51.196;6.204;2023-02-28T14:51:09;23.20;29.00
49132;DHT22;35149;51.196;6.204;2023-02-28T14:53:41;22.70;28.00
49132;DHT22;35149;51.196;6.204;2023-02-28T14:56:23;22.00;28.50
49132;DHT22;35149;51.196;6.204;2023-02-28T14:58:55;21.10;27.90
49132;DHT22;35149;51.196;6.204;2023-02-28T15:01:29;20.30;28.60
49132;DHT22;35149;51.196;6.204;2023-02-28T15:04:03;19.50;28.90
49132;DHT22;35149;51.196;6.204;2023-02-28T15:06:33;18.80;29.30
49132;DHT22;35149;51.196;6.204;2023-02-28T15:09:17;18.10;29.50
49132;DHT22;35149;51.196;6.204;2023-02-28T15:12:03;17.50;29.60
49132;DHT22;35149;51.196;6.204;2023-02-28T15:14:36;16.90;30.70
49132;DHT22;35149;51.196;6.204;2023-02-28T15:17:11;16.70;31.20
49132;DHT22;35149;51.196;6.204;2023-02-28T15:19:47;16.80;31.60
49132;DHT22;35149;51.196;6.204;2023-02-28T15:22:17;17.00;31.80
49132;DHT22;35149;51.196;6.204;2023-02-28T15:24:47;17.50;32.30
49132;DHT22;35149;51.196;6.204;2023-02-28T15:27:21;18.10;31.70
49132;DHT22;35149;51.196;6.204;2023-02-28T15:29:53;18.70;31.30
49132;DHT22;35149;51.196;6.204;2023-02-28T15:32:36;19.30;31.30
49132;DHT22;35149;51.196;6.204;2023-02-28T15:38:00;20.60;29.90
49132;DHT22;35149;51.196;6.204;2023-02-28T15:40:43;21.20;29.40
49132;DHT22;35149;51.196;6.204;2023-02-28T15:43:18;21.70;28.80
49132;DHT22;35149;51.196;6.204;2023-02-28T15:45:51;22.20;28.10
49132;DHT22;35149;51.196;6.204;2023-02-28T15:48:28;22.50;28.40
49132;DHT22;35149;51.196;6.204;2023-02-28T15:51:17;22.90;27.80
49132;DHT22;35149;51.196;6.204;2023-02-28T15:53:50;23.20;28.10
49132;DHT22;35149;51.196;6.204;2023-02-28T15:56:28;23.40;27.20
49132;DHT22;35149;51.196;6.204;2023-02-28T15:59:06;23.60;26.80
49132;DHT22;35149;51.196;6.204;2023-02-28T16:01:39;23.80;26.90
49132;DHT22;35149;51.196;6.204;2023-02-28T16:04:13;23.90;27.50
49132;DHT22;35149;51.196;6.204;2023-02-28T16:09:26;24.10;26.80
49132;DHT22;35149;51.196;6.204;2023-02-28T16:11:55;24.20;26.70
49132;DHT22;35149;51.196;6.204;2023-02-28T16:14:25;24.20;26.20
49132;DHT22;35149;51.196;6.204;2023-02-28T16:17:07;24.20;26.10
49132;DHT22;35149;51.196;6.204;2023-02-28T16:19:36;24.20;26.10
49132;DHT22;35149;51.196;6.204;2023-02-28T16:22:02;24.10;26.20
49132;DHT22;35149;51.196;6.204;2023-02-28T16:24:29;23.90;26.00
49132;DHT22;35149;51.196;6.204;2023-02-28T16:26:57;23.60;25.90
49132;DHT22;35149;51.196;6.204;2023-02-28T16:29:34;23.10;25.70
49132;DHT22;35149;51.196;6.204;2023-02-28T16:32:04;22.40;25.40
49132;DHT22;35149;51.196;6.204;2023-02-28T16:34:32;21.60;26.10
49132;DHT22;35149;51.196;6.204;2023-02-28T16:36:59;20.70;26.30
49132;DHT22;35149;51.196;6.204;2023-02-28T16:39:26;19.80;26.60
49132;DHT22;35149;51.196;6.204;2023-02-28T16:41:52;19.00;27.10
49132;DHT22;35149;51.196;6.204;2023-02-28T16:44:28;18.10;27.60
49132;DHT22;35149;51.196;6.204;2023-02-28T16:46:55;17.40;28.10
49132;DHT22;35149;51.196;6.204;2023-02-28T16:49:22;16.70;28.80
49132;DHT22;35149;51.196;6.204;2023-02-28T16:51:49;16.00;29.30
49132;DHT22;35149;51.196;6.204;2023-02-28T16:54:16;15.40;29.80
49132;DHT22;35149;51.196;6.204;2023-02-28T16:56:47;14.80;30.20
49132;DHT22;35149;51.196;6.204;2023-02-28T16:59:18;14.30;30.70
49132;DHT22;35149;51.196;6.204;2023-02-28T17:01:45;13.90;31.20
49132;DHT22;35149;51.196;6.204;2023-02-28T17:04:12;13.40;31.70
49132;DHT22;35149;51.196;6.204;2023-02-28T17:06:40;13.00;32.10
49132;DHT22;35149;51.196;6.204;2023-02-28T17:09:20;12.70;32.60
49132;DHT22;35149;51.196;6.204;2023-02-28T17:11:56;12.30;33.20
49132;DHT22;35149;51.196;6.204;2023-02-28T17:14:23;11.90;33.60
49132;DHT22;35149;51.196;6.204;2023-02-28T17:16:49;11.70;34.20
49132;DHT22;35149;51.196;6.204;2023-02-28T17:19:16;11.40;34.50
49132;DHT22;35149;51.196;6.204;2023-02-28T17:21:43;11.10;34.80
49132;DHT22;35149;51.196;6.204;2023-02-28T17:24:11;10.90;35.30
49132;DHT22;35149;51.196;6.204;2023-02-28T17:26:55;10.70;35.40
49132;DHT22;35149;51.196;6.204;2023-02-28T17:29:22;10.40;35.90
49132;DHT22;35149;51.196;6.204;2023-02-28T17:31:49;10.20;36.30
49132;DHT22;35149;51.196;6.204;2023-02-28T17:34:15;10.00;36.60
49132;DHT22;35149;51.196;6.204;2023-02-28T17:36:45;9.90;36.90
49132;DHT22;35149;51.196;6.204;2023-02-28T17:39:13;9.70;37.10
49132;DHT22;35149;51.196;6.204;2023-02-28T17:41:46;9.50;37.30
49132;DHT22;35149;51.196;6.204;2023-02-28T17:44:12;9.40;37.60
49132;DHT22;35149;51.196;6.204;2023-02-28T17:46:42;9.30;38.00
49132;DHT22;35149;51.196;6.204;2023-02-28T17:49:09;9.10;38.30
49132;DHT22;35149;51.196;6.204;2023-02-28T17:51:36;9.00;38.50
49132;DHT22;35149;51.196;6.204;2023-02-28T17:54:03;8.90;38.80
49132;DHT22;35149;51.196;6.204;2023-02-28T17:56:29;8.80;39.10
49132;DHT22;35149;51.196;6.204;2023-02-28T17:58:57;8.60;39.20
49132;DHT22;35149;51.196;6.204;2023-02-28T18:01:24;8.50;39.40
49132;DHT22;35149;51.196;6.204;2023-02-28T18:03:54;8.40;39.70
49132;DHT22;35149;51.196;6.204;2023-02-28T18:06:29;8.30;40.00
49132;DHT22;35149;51.196;6.204;2023-02-28T18:08:57;8.20;40.40
49132;DHT22;35149;51.196;6.204;2023-02-28T18:11:25;8.10;40.40
49132;DHT22;35149;51.196;6.204;2023-02-28T18:13:53;8.00;40.60
49132;DHT22;35149;51.196;6.204;2023-02-28T18:16:22;7.90;40.90
49132;DHT22;35149;51.196;6.204;2023-02-28T18:18:49;7.80;41.00
49132;DHT22;35149;51.196;6.204;2023-02-28T18:21:16;7.70;41.30
49132;DHT22;35149;51.196;6.204;2023-02-28T18:23:43;7.60;41.50
49132;DHT22;35149;51.196;6.204;2023-02-28T18:26:18;7.50;41.70
49132;DHT22;35149;51.196;6.204;2023-02-28T18:28:46;7.40;42.10
49132;DHT22;35149;51.196;6.204;2023-02-28T18:31:16;7.30;42.00
49132;DHT22;35149;51.196;6.204;2023-02-28T18:33:49;7.20;42.30